Time;durP1;ratioP1;P1;durP2;ratioP2;P2;SDS_P1;SDS_P2;PMS_P1;PMS_P2;Temp;Humidity;BMP_temperature;BMP_pressure;BME280_temperature;BME280_humidity;BME280_pressure;Samples;Min_cycle;Max_cycle;Signal;HPM_P1;HPM_P2
2023/01/20 00:01:46;;;;;;;;;30.50;30.25;;;;;10.31;54.34;98451.91;5067086;28;8894;-77
2023/01/20 00:04:17;;;;;;;;;36.75;35.50;;;;;10.25;54.25;98449.38;5066665;28;8898;-79
2023/01/20 00:06:46;;;;;;;;;33.25;32.25;;;;;10.05;54.68;98453.16;5067835;28;8911;-78
2023/01/20 00:09:17;;;;;;;;;34.80;30.00;;;;;9.94;55.16;98448.13;5052461;28;9005;-77
2023/01/20 00:11:48;;;;;;;;;35.50;28.25;;;;;9.96;55.01;98437.66;5052529;28;8851;-77
2023/01/20 00:14:16;;;;;;;;;38.40;30.80;;;;;9.63;56.12;98433.88;5070476;28;8865;-78
2023/01/20 00:16:45;;;;;;;;;35.75;31.75;;;;;9.74;56.17;98443.22;5090764;28;8858;-78
2023/01/20 00:19:14;;;;;;;;;29.80;28.80;;;;;9.76;56.28;98441.47;5090531;28;8862;-78
2023/01/20 00:21:43;;;;;;;;;30.25;27.50;;;;;9.81;55.99;98444.00;5072912;28;8866;-81
2023/01/20 00:24:11;;;;;;;;;34.80;29.00;;;;;9.60;55.93;98449.50;5072458;28;8861;-78
2023/01/20 00:26:40;;;;;;;;;25.25;24.75;;;;;9.73;55.72;98451.06;5073370;28;8854;-78
2023/01/20 00:29:11;;;;;;;;;34.25;33.00;;;;;9.42;55.67;98441.09;5071903;28;8845;-78
2023/01/20 00:31:40;;;;;;;;;37.50;35.25;;;;;9.41;56.26;98428.09;5087441;28;8865;-78
2023/01/20 00:34:10;;;;;;;;;28.00;26.75;;;;;9.28;56.51;98440.41;5037974;28;8857;-79
2023/01/20 00:36:39;;;;;;;;;32.75;29.25;;;;;8.98;57.51;98429.53;5070408;28;8855;-78
2023/01/20 00:39:07;;;;;;;;;36.25;31.00;;;;;9.25;56.86;98430.06;5087919;28;8864;-79
2023/01/20 00:41:36;;;;;;;;;30.00;28.00;;;;;9.26;57.35;98422.25;5079100;28;8855;-78
2023/01/20 00:44:05;;;;;;;;;33.75;30.25;;;;;9.07;57.35;98419.00;5001235;28;9007;-76
2023/01/20 00:46:35;;;;;;;;;27.25;26.50;;;;;9.07;57.02;98421.59;5066939;28;8844;-80
2023/01/20 00:49:04;;;;;;;;;31.00;25.20;;;;;8.97;57.24;98417.41;5033790;28;8836;-79
2023/01/20 00:51:33;;;;;;;;;28.75;26.25;;;;;8.83;57.71;98416.69;5050353;28;8887;-79
2023/01/20 00:54:01;;;;;;;;;27.00;26.50;;;;;8.72;57.24;98424.63;5066881;28;8863;-78
2023/01/20 00:56:30;;;;;;;;;24.20;22.00;;;;;8.91;57.06;98426.13;5066511;28;8860;-77
2023/01/20 00:58:59;;;;;;;;;32.00;27.75;;;;;8.81;57.51;98423.66;5066705;28;10058;-78
2023/01/20 01:01:28;;;;;;;;;25.25;24.75;;;;;8.86;56.89;98412.31;5066277;28;8855;-77
2023/01/20 01:03:58;;;;;;;;;28.00;27.25;;;;;8.86;56.91;98401.91;5034833;28;8894;-78
2023/01/20 01:06:27;;;;;;;;;30.00;23.80;;;;;8.66;57.06;98406.47;5069355;28;8863;-78
2023/01/20 01:08:55;;;;;;;;;32.20;27.40;;;;;8.76;56.77;98390.78;5051276;28;8843;-78
2023/01/20 01:11:24;;;;;;;;;28.25;27.25;;;;;8.68;57.31;98403.00;5051332;28;8848;-77
2023/01/20 01:13:55;;;;;;;;;22.60;20.60;;;;;8.68;56.69;98412.56;5018230;28;8844;-78
2023/01/20 01:16:24;;;;;;;;;25.75;21.25;;;;;8.65;56.71;98397.84;5069305;28;8855;-80
2023/01/20 01:18:54;;;;;;;;;25.25;25.25;;;;;8.37;57.34;98395.53;5072318;28;8852;-78
2023/01/20 01:21:25;;;;;;;;;25.00;23.60;;;;;8.37;57.22;98392.94;5093488;28;8965;-81
2023/01/20 01:23:54;;;;;;;;;29.60;24.80;;;;;8.31;57.60;98392.13;5091937;28;8850;-78
2023/01/20 01:26:23;;;;;;;;;28.00;24.25;;;;;8.20;57.76;98387.03;5072646;28;8915;-79
2023/01/20 01:28:52;;;;;;;;;23.25;21.00;;;;;8.24;57.85;98385.25;5089551;28;8857;-80
2023/01/20 01:31:21;;;;;;;;;31.60;28.20;;;;;8.15;58.25;98391.41;5036928;28;8865;-78
2023/01/20 01:33:50;;;;;;;;;28.00;26.00;;;;;8.31;57.70;98381.72;5089156;28;9652;-80
2023/01/20 01:36:19;;;;;;;;;22.75;21.50;;;;;8.39;57.62;98385.97;5069556;28;8838;-79
2023/01/20 01:38:49;;;;;;;;;27.00;25.75;;;;;8.34;57.44;98397.28;5070449;28;8884;-79
2023/01/20 01:41:26;;;;;;;;;30.25;25.25;;;;;7.79;59.17;98416.81;5023701;28;8869;-76
2023/01/20 01:44:05;;;;;;;;;23.25;22.75;;;;;7.68;59.34;98411.69;5036996;28;8857;-78
2023/01/20 01:46:34;;;;;;;;;26.50;23.75;;;;;7.00;61.95;98413.84;5070608;28;8853;-77
2023/01/20 01:49:07;;;;;;;;;34.00;29.50;;;;;7.56;59.92;98399.69;5070565;28;8854;-78
2023/01/20 01:51:39;;;;;;;;;24.50;20.50;;;;;7.54;60.03;98380.69;5088614;28;8877;-78
2023/01/20 01:54:13;;;;;;;;;22.00;17.60;;;;;7.80;59.84;98396.03;5078147;28;9640;-76
2023/01/20 01:56:44;;;;;;;;;26.75;24.00;;;;;7.55;59.39;98397.94;5028916;28;8901;-77
2023/01/20 01:59:15;;;;;;;;;23.50;19.50;;;;;7.74;59.37;98392.63;5045646;28;8865;-77
2023/01/20 02:01:49;;;;;;;;;26.00;23.50;;;;;7.96;59.21;98386.38;5028787;28;8846;-79
2023/01/20 02:04:20;;;;;;;;;23.80;23.40;;;;;8.08;58.98;98394.94;5012598;28;8963;-78
2023/01/20 02:06:52;;;;;;;;;27.75;26.50;;;;;7.77;58.54;98401.25;5045630;28;9688;-77
2023/01/20 02:09:23;;;;;;;;;23.25;20.00;;;;;8.09;58.45;98394.94;5024819;28;8895;-78
2023/01/20 02:11:57;;;;;;;;;29.40;25.40;;;;;8.18;57.74;98400.03;5048538;28;8859;-80
2023/01/20 02:14:29;;;;;;;;;26.00;23.00;;;;;8.28;57.36;98393.03;5065460;28;8855;-79
2023/01/20 02:17:04;;;;;;;;;21.80;19.40;;;;;8.21;57.18;98391.34;5045075;28;8926;-78
2023/01/20 02:20:11;;;;;;;;;25.25;22.75;;;;;8.41;56.52;98385.94;5028772;28;9088;-77
2023/01/20 02:22:51;;;;;;;;;19.00;18.75;;;;;8.36;56.88;98385.16;4966202;28;8883;-79
2023/01/20 02:26:10;;;;;;;;;26.40;21.40;;;;;7.39;58.82;98376.44;4966005;28;8899;-77
2023/01/20 02:29:20;;;;;;;;;20.25;18.75;;;;;6.31;62.80;98380.38;4873803;29;8878;-80
2023/01/20 02:32:25;;;;;;;;;23.00;21.50;;;;;6.38;62.35;98375.19;4905226;29;8958;-78
2023/01/20 02:35:00;;;;;;;;;31.25;23.25;;;;;5.25;66.16;98379.53;4865452;29;8863;-79
2023/01/20 02:37:34;;;;;;;;;20.50;20.50;;;;;4.77;68.83;98382.84;4927963;29;8930;-77
2023/01/20 02:40:14;;;;;;;;;24.75;20.75;;;;;4.24;70.87;98384.28;4928239;29;8981;-77
2023/01/20 02:42:47;;;;;;;;;21.25;17.00;;;;;4.42;70.85;98384.41;4880892;29;8864;-78
2023/01/20 02:45:22;;;;;;;;;18.00;17.75;;;;;4.64;70.31;98371.59;4926941;29;8894;-76
2023/01/20 02:48:00;;;;;;;;;20.75;17.75;;;;;5.06;68.32;98357.06;4865650;29;8875;-78
2023/01/20 02:50:38;;;;;;;;;16.20;16.20;;;;;4.98;68.73;98354.47;4927494;29;8878;-78
2023/01/20 02:53:09;;;;;;;;;21.60;17.60;;;;;5.51;67.24;98342.50;4920855;29;9031;-78
2023/01/20 02:55:42;;;;;;;;;20.75;20.50;;;;;5.85;65.88;98338.16;4908201;29;8890;-79
2023/01/20 02:58:16;;;;;;;;;14.40;13.00;;;;;6.09;65.05;98339.03;4912603;29;8868;-78
2023/01/20 03:01:05;;;;;;;;;17.80;15.40;;;;;6.05;64.46;98332.16;4921450;28;8947;-77
2023/01/20 03:03:39;;;;;;;;;14.00;11.40;;;;;5.86;65.08;98326.97;4908805;29;8851;-76
2023/01/20 03:06:14;;;;;;;;;11.40;10.60;;;;;5.96;64.46;98321.81;4961569;28;8957;-77
2023/01/20 03:08:45;;;;;;;;;14.80;13.40;;;;;6.00;64.45;98321.78;4988646;28;8910;-78
2023/01/20 03:11:15;;;;;;;;;14.60;13.40;;;;;5.28;66.83;98329.56;4994539;28;9015;-79
2023/01/20 03:13:50;;;;;;;;;16.20;14.40;;;;;5.05;67.95;98332.97;5024744;28;8875;-80
2023/01/20 03:16:22;;;;;;;;;16.00;14.75;;;;;4.73;69.37;98335.47;5008194;28;8872;-78
2023/01/20 03:18:54;;;;;;;;;13.40;13.40;;;;;4.50;70.87;98325.06;4940975;28;8862;-79
2023/01/20 03:21:23;;;;;;;;;16.00;15.60;;;;;4.37;71.05;98325.88;5004656;28;8863;-77
2023/01/20 03:23:54;;;;;;;;;16.20;13.60;;;;;4.40;70.95;98325.88;5021164;28;8883;-79
2023/01/20 03:26:23;;;;;;;;;14.60;13.20;;;;;4.28;71.26;98330.13;4988383;28;8840;-78
2023/01/20 03:28:53;;;;;;;;;18.40;15.20;;;;;3.99;72.15;98340.28;5020819;28;8852;-78
2023/01/20 03:31:25;;;;;;;;;19.60;16.80;;;;;3.73;74.02;98328.94;4988623;28;8926;-78
2023/01/20 03:33:59;;;;;;;;;16.20;13.00;;;;;3.84;73.67;98345.34;5004261;28;8855;-77
2023/01/20 03:36:30;;;;;;;;;17.20;15.20;;;;;3.51;74.57;98354.53;4988709;28;8875;-78
2023/01/20 03:38:59;;;;;;;;;16.00;16.00;;;;;3.53;74.83;98358.00;5049450;28;9005;-78
2023/01/20 03:41:39;;;;;;;;;20.00;17.00;;;;;3.54;75.06;98361.44;5068831;28;8860;-79
2023/01/20 03:44:12;;;;;;;;;17.75;16.25;;;;;3.81;73.76;98345.31;5070879;28;8832;-78
2023/01/20 03:46:47;;;;;;;;;17.25;16.75;;;;;3.52;74.61;98351.13;5070521;28;8936;-79
2023/01/20 03:49:25;;;;;;;;;19.25;17.00;;;;;3.57;74.99;98344.28;5086628;28;8950;-78
2023/01/20 03:52:01;;;;;;;;;22.00;18.75;;;;;3.45;75.25;98339.03;5072457;28;8826;-80
2023/01/20 03:54:37;;;;;;;;;24.25;19.25;;;;;3.37;76.41;98330.38;5090778;28;9406;-76
2023/01/20 03:57:10;;;;;;;;;22.25;19.25;;;;;3.86;74.30;98308.41;5072527;28;8858;-78
2023/01/20 03:59:43;;;;;;;;;27.75;23.00;;;;;3.71;74.35;98313.47;5055851;28;8871;-78
2023/01/20 04:02:12;;;;;;;;;25.00;21.50;;;;;3.84;74.22;98299.78;5023821;28;8858;-79
2023/01/20 04:04:46;;;;;;;;;22.50;18.00;;;;;3.95;73.61;98299.88;5090783;28;8872;-77
2023/01/20 04:07:19;;;;;;;;;19.50;18.50;;;;;3.84;73.73;98310.09;5054318;28;9566;-78
2023/01/20 04:09:52;;;;;;;;;18.80;17.20;;;;;4.03;73.71;98287.00;5052271;28;8967;-79
2023/01/20 04:12:21;;;;;;;;;16.50;15.25;;;;;3.89;73.85;98303.28;5052084;28;8851;-78
2023/01/20 04:14:50;;;;;;;;;21.00;18.50;;;;;4.22;72.39;98285.38;5051972;28;8851;-77
2023/01/20 04:17:19;;;;;;;;;25.50;18.00;;;;;4.64;71.27;98274.31;5019936;28;8856;-79
2023/01/20 04:19:49;;;;;;;;;15.00;15.00;;;;;4.75;70.12;98276.09;5074222;28;8906;-77
2023/01/20 04:22:24;;;;;;;;;23.25;18.25;;;;;4.81;69.69;98292.44;5070619;28;8948;-77
2023/01/20 04:24:57;;;;;;;;;21.25;18.00;;;;;5.20;69.05;98277.00;5054883;28;8950;-78
2023/01/20 04:27:27;;;;;;;;;14.00;13.00;;;;;4.93;69.33;98280.41;5089767;28;8857;-78
2023/01/20 04:29:55;;;;;;;;;12.20;11.00;;;;;4.45;70.94;98277.72;5089937;28;8951;-78
2023/01/20 04:32:24;;;;;;;;;15.00;15.00;;;;;3.73;73.54;98287.69;5071819;28;8865;-78
2023/01/20 04:34:54;;;;;;;;;13.40;12.60;;;;;3.49;74.79;98284.09;5071650;28;8853;-78
2023/01/20 04:37:24;;;;;;;;;19.75;16.25;;;;;3.43;74.99;98281.47;5090015;28;8877;-77
2023/01/20 04:39:53;;;;;;;;;16.75;14.25;;;;;3.28;76.17;98282.22;5071954;28;8966;-77
2023/01/20 04:42:22;;;;;;;;;20.00;13.50;;;;;3.24;76.16;98286.47;5070468;28;8829;-80
2023/01/20 04:44:51;;;;;;;;;17.50;17.00;;;;;3.37;76.01;98284.00;5072133;28;8910;-80
2023/01/20 04:47:20;;;;;;;;;15.50;15.00;;;;;3.00;77.17;98291.41;5089532;28;8860;-81
2023/01/20 04:49:48;;;;;;;;;16.50;16.00;;;;;3.08;77.29;98290.63;5074742;28;8860;-79
2023/01/20 04:52:18;;;;;;;;;15.50;13.75;;;;;2.67;79.02;98308.25;5068667;28;8840;-79
2023/01/20 04:54:47;;;;;;;;;12.40;7.40;;;;;2.56;79.88;98302.13;5034185;28;8991;-79
2023/01/20 04:57:16;;;;;;;;;18.25;16.50;;;;;2.59;79.95;98312.44;5051159;28;8880;-77
2023/01/20 04:59:44;;;;;;;;;15.75;13.75;;;;;2.86;78.60;98315.31;5063615;28;8848;-81
2023/01/20 05:02:13;;;;;;;;;15.00;13.00;;;;;2.75;79.33;98319.47;5001421;28;8856;-80
2023/01/20 05:04:42;;;;;;;;;18.25;14.50;;;;;2.86;78.77;98304.16;5034890;28;8848;-78
2023/01/20 05:07:11;;;;;;;;;18.00;14.50;;;;;2.71;79.22;98307.44;5034199;28;8967;-78
2023/01/20 05:09:41;;;;;;;;;17.00;15.00;;;;;2.76;79.36;98298.06;5022872;28;8917;-78
2023/01/20 05:12:10;;;;;;;;;20.25;17.25;;;;;2.73;79.40;98296.28;5006438;28;8851;-79
2023/01/20 05:14:38;;;;;;;;;23.50;20.50;;;;;2.93;78.61;98305.94;5006918;28;8902;-79
2023/01/20 05:17:10;;;;;;;;;20.25;17.50;;;;;3.02;78.04;98302.59;5025760;28;9026;-78
2023/01/20 05:19:39;;;;;;;;;20.50;16.50;;;;;3.09;78.29;98294.06;5026257;28;9117;-77
2023/01/20 05:22:08;;;;;;;;;27.25;24.75;;;;;2.95;78.30;98293.06;5009588;28;9705;-77
2023/01/20 05:24:37;;;;;;;;;22.75;20.75;;;;;2.88;78.73;98292.16;5026276;28;9736;-79
2023/01/20 05:27:07;;;;;;;;;25.50;20.25;;;;;3.18;77.83;98285.56;5042490;28;9704;-78
2023/01/20 05:29:36;;;;;;;;;23.25;19.50;;;;;3.04;77.83;98283.72;5025931;28;8848;-78
2023/01/20 05:32:05;;;;;;;;;29.25;24.25;;;;;3.24;76.92;98299.34;5024701;28;8906;-81
2023/01/20 05:34:34;;;;;;;;;22.00;20.50;;;;;3.17;77.68;98299.28;5009240;28;8889;-80
2023/01/20 05:37:02;;;;;;;;;25.25;24.50;;;;;3.53;76.20;98295.28;5025939;28;8868;-79
2023/01/20 05:39:31;;;;;;;;;21.25;18.75;;;;;3.31;76.90;98316.59;5025265;28;8873;-77
2023/01/20 05:42:01;;;;;;;;;25.00;21.75;;;;;3.20;77.17;98310.47;5049204;28;8884;-81
2023/01/20 05:44:31;;;;;;;;;25.25;19.00;;;;;2.91;78.51;98317.91;5068256;28;8949;-78
2023/01/20 05:47:00;;;;;;;;;23.50;22.00;;;;;2.98;78.05;98314.56;5068538;28;8867;-77
2023/01/20 05:49:28;;;;;;;;;26.00;23.50;;;;;3.00;78.09;98306.84;5086820;28;9000;-80
2023/01/20 05:51:57;;;;;;;;;23.75;22.50;;;;;3.24;76.80;98317.38;5069411;28;9003;-78
2023/01/20 05:54:26;;;;;;;;;18.25;16.25;;;;;3.04;77.83;98311.19;5069670;28;8894;-79
2023/01/20 05:56:54;;;;;;;;;27.25;22.50;;;;;3.07;77.73;98317.22;5086600;28;8869;-77
2023/01/20 05:59:23;;;;;;;;;16.50;15.50;;;;;3.03;77.68;98312.91;5053476;28;8886;-78
2023/01/20 06:01:55;;;;;;;;;18.50;18.50;;;;;3.09;77.68;98309.53;5048044;28;8868;-79
2023/01/20 06:04:26;;;;;;;;;14.50;12.00;;;;;3.04;77.88;98303.47;5047568;28;8971;-79
2023/01/20 06:06:55;;;;;;;;;21.25;17.25;;;;;3.26;76.96;98310.53;5047332;28;10060;-79
2023/01/20 06:09:23;;;;;;;;;20.00;19.00;;;;;3.27;76.82;98321.69;5069354;28;8849;-79
2023/01/20 06:11:52;;;;;;;;;18.00;17.25;;;;;3.23;77.07;98322.50;5052757;28;8850;-80
2023/01/20 06:14:21;;;;;;;;;20.25;18.25;;;;;3.41;76.64;98320.09;4999723;28;8866;-81
2023/01/20 06:16:50;;;;;;;;;15.50;15.25;;;;;3.56;75.23;98329.69;5085216;28;8868;-80
2023/01/20 06:19:20;;;;;;;;;20.00;18.25;;;;;3.73;74.77;98326.38;5086496;28;8854;-80
2023/01/20 06:21:48;;;;;;;;;18.75;18.00;;;;;3.49;76.08;98338.19;4999218;28;8844;-77
2023/01/20 06:24:17;;;;;;;;;25.50;21.50;;;;;3.45;76.62;98339.03;5080762;28;8840;-78
2023/01/20 06:26:46;;;;;;;;;20.00;15.50;;;;;3.48;76.18;98342.50;5068350;28;8841;-79
2023/01/20 06:29:15;;;;;;;;;23.50;21.25;;;;;3.39;76.06;98337.25;5067557;28;8861;-79
2023/01/20 06:31:44;;;;;;;;;25.00;22.00;;;;;3.31;77.14;98329.47;5049685;28;8867;-78
2023/01/20 06:34:13;;;;;;;;;26.75;23.75;;;;;3.13;77.55;98319.00;5046984;28;8859;-81
2023/01/20 06:36:43;;;;;;;;;27.25;24.25;;;;;3.10;78.19;98326.69;5058120;28;8906;-77
2023/01/20 06:39:12;;;;;;;;;22.25;21.00;;;;;3.11;78.28;98339.59;5047610;28;8877;-80
2023/01/20 06:41:41;;;;;;;;;24.75;19.25;;;;;3.06;79.13;98338.69;5017501;28;8842;-78
2023/01/20 06:44:09;;;;;;;;;27.75;23.75;;;;;3.12;80.89;98340.47;5067722;28;8862;-72
2023/01/20 06:46:38;;;;;;;;;26.00;26.00;;;;;3.20;80.81;98340.53;5084236;28;8856;-71
2023/01/20 06:49:07;;;;;;;;;27.75;23.50;;;;;3.29;79.86;98340.63;5085901;28;8898;-80
2023/01/20 06:51:36;;;;;;;;;28.00;27.00;;;;;3.32;79.31;98349.22;5069568;28;8900;-79
2023/01/20 06:54:06;;;;;;;;;36.50;35.25;;;;;3.18;79.62;98350.81;5058429;28;8883;-82
2023/01/20 06:56:35;;;;;;;;;29.50;27.00;;;;;3.31;79.38;98346.66;5045982;28;8870;-79
2023/01/20 06:59:03;;;;;;;;;29.00;26.75;;;;;3.50;77.97;98363.13;5036570;28;8876;-80
2023/01/20 07:01:33;;;;;;;;;30.50;28.75;;;;;3.34;78.93;98343.22;5029238;28;8866;-78
2023/01/20 07:04:02;;;;;;;;;32.25;28.75;;;;;3.40;78.74;98351.00;5043920;28;8862;-82
2023/01/20 07:06:34;;;;;;;;;34.00;32.75;;;;;4.05;77.45;98362.69;5011107;28;8857;-82
2023/01/20 07:09:03;;;;;;;;;22.25;19.00;;;;;4.25;76.29;98363.66;5041203;28;8883;-83
2023/01/20 07:11:33;;;;;;;;;21.75;20.50;;;;;4.57;75.20;98362.94;5013900;28;8842;-79
2023/01/20 07:14:03;;;;;;;;;23.00;21.25;;;;;4.82;74.35;98381.09;5022783;28;8844;-83
2023/01/20 07:16:32;;;;;;;;;25.25;22.25;;;;;5.02;73.62;98389.78;4992348;28;8854;-81
2023/01/20 07:19:01;;;;;;;;;27.75;22.00;;;;;5.07;73.24;98385.50;4997062;28;8880;-81
2023/01/20 07:21:30;;;;;;;;;25.50;20.50;;;;;4.95;73.26;98382.03;4999653;28;8861;-81
2023/01/20 07:24:01;;;;;;;;;25.00;25.00;;;;;5.15;72.85;98379.50;4990386;28;9718;-80
2023/01/20 07:26:31;;;;;;;;;16.75;16.00;;;;;5.10;72.02;98356.22;5016442;28;8857;-81
2023/01/20 07:29:05;;;;;;;;;24.25;21.50;;;;;4.47;73.48;98335.38;5014735;28;8929;-82
2023/01/20 07:31:34;;;;;;;;;23.00;20.00;;;;;4.55;73.61;98330.25;5021819;28;8866;-82
2023/01/20 07:34:03;;;;;;;;;22.00;20.00;;;;;4.46;73.99;98339.69;5014956;28;8912;-80
2023/01/20 07:36:33;;;;;;;;;23.00;20.75;;;;;4.72;73.06;98356.97;5033155;28;8958;-82
2023/01/20 07:39:02;;;;;;;;;9.00;6.00;;;;;4.15;74.60;98364.44;5045803;28;8951;-84
2023/01/20 07:41:31;;;;;;;;;23.25;20.50;;;;;3.93;75.38;98375.47;5035895;28;8866;-85
2023/01/20 07:44:00;;;;;;;;;22.25;21.75;;;;;4.14;75.31;98382.50;5032080;28;8902;-83
2023/01/20 07:46:30;;;;;;;;;21.25;17.25;;;;;4.25;74.89;98384.31;5006699;28;8861;-81
2023/01/20 07:48:59;;;;;;;;;23.25;23.00;;;;;4.68;74.33;98383.66;5027688;28;8988;-83
2023/01/20 07:51:29;;;;;;;;;18.75;18.50;;;;;4.12;74.84;98384.19;5015680;28;8873;-83
2023/01/20 07:53:59;;;;;;;;;21.25;20.75;;;;;4.20;74.79;98390.31;5029577;28;8931;-84
2023/01/20 07:56:29;;;;;;;;;22.50;21.75;;;;;4.06;74.78;98393.66;5049108;28;8863;-84
2023/01/20 07:58:59;;;;;;;;;17.75;16.00;;;;;4.10;74.98;98395.41;5026592;28;8871;-83
2023/01/20 08:01:31;;;;;;;;;18.00;16.50;;;;;4.28;74.71;98397.22;5029760;28;8888;-86
2023/01/20 08:04:01;;;;;;;;;22.25;16.75;;;;;4.08;74.94;98385.91;5032530;28;8905;-80
2023/01/20 08:06:31;;;;;;;;;14.25;13.00;;;;;4.12;75.25;98391.94;5029730;28;8872;-82
2023/01/20 08:09:01;;;;;;;;;13.00;11.00;;;;;3.97;75.26;98383.28;5073125;28;8858;-83
2023/01/20 08:11:32;;;;;;;;;18.00;16.00;;;;;4.13;74.74;98393.69;5070372;28;8875;-87
2023/01/20 08:14:01;;;;;;;;;14.40;13.60;;;;;4.24;74.91;98397.19;5061962;28;8882;-81
2023/01/20 08:16:32;;;;;;;;;17.25;15.00;;;;;4.29;74.45;98401.53;5065840;28;8830;-83
2023/01/20 08:19:00;;;;;;;;;17.75;16.50;;;;;4.44;74.50;98398.19;5048812;28;9014;-83
2023/01/20 08:21:32;;;;;;;;;13.50;9.50;;;;;4.46;73.98;98393.88;5054046;28;9653;-83
2023/01/20 08:24:04;;;;;;;;;10.00;10.00;;;;;4.14;74.37;98390.22;5051345;28;8856;-82
2023/01/20 08:26:34;;;;;;;;;16.00;10.40;;;;;4.32;73.83;98394.66;5050483;28;8864;-82
2023/01/20 08:29:06;;;;;;;;;19.50;17.75;;;;;3.95;74.98;98387.56;5051292;28;8906;-82
2023/01/20 08:31:38;;;;;;;;;11.50;11.50;;;;;4.15;74.75;98385.09;5049006;28;8852;-84
2023/01/20 08:34:08;;;;;;;;;13.80;12.20;;;;;4.27;74.06;98392.03;5026535;28;8844;-85
2023/01/20 08:36:40;;;;;;;;;12.20;12.20;;;;;4.13;74.88;98391.09;5007508;28;8977;-82
2023/01/20 08:39:13;;;;;;;;;14.20;9.20;;;;;4.27;74.16;98402.34;5007013;28;8900;-82
2023/01/20 08:41:43;;;;;;;;;18.40;13.00;;;;;4.47;74.18;98410.22;4995242;28;8837;-85
2023/01/20 08:44:12;;;;;;;;;10.20;9.80;;;;;4.24;74.16;98410.09;5012783;28;8869;-82
2023/01/20 08:46:45;;;;;;;;;10.00;8.40;;;;;4.19;74.37;98417.78;4994774;28;8965;-84
2023/01/20 08:49:15;;;;;;;;;15.60;13.60;;;;;4.25;74.59;98429.88;4995382;28;8841;-82
2023/01/20 08:51:45;;;;;;;;;10.20;9.60;;;;;4.60;74.17;98432.66;5029290;28;8861;-84
2023/01/20 08:54:18;;;;;;;;;12.60;8.20;;;;;4.77;73.63;98427.59;4995638;28;8857;-84
2023/01/20 08:56:50;;;;;;;;;16.00;13.60;;;;;4.78;73.21;98444.81;5009832;28;8850;-81
2023/01/20 08:59:19;;;;;;;;;11.20;10.80;;;;;5.07;72.54;98452.69;4996342;28;8854;-83
2023/01/20 09:01:50;;;;;;;;;15.20;13.20;;;;;5.06;72.62;98442.34;5017223;28;8842;-84
2023/01/20 09:04:19;;;;;;;;;11.00;10.00;;;;;5.02;72.68;98448.34;5015692;28;9015;-84
2023/01/20 09:06:51;;;;;;;;;12.25;11.50;;;;;5.22;72.42;98440.69;5052219;28;8856;-82
2023/01/20 09:09:22;;;;;;;;;13.50;13.50;;;;;5.01;72.33;98441.44;5030341;28;9104;-82
2023/01/20 09:11:51;;;;;;;;;20.75;16.75;;;;;4.63;73.00;98444.72;5031041;28;8869;-83
2023/01/20 09:14:22;;;;;;;;;16.75;16.25;;;;;4.00;74.51;98441.75;5030765;28;8858;-82
2023/01/20 09:16:53;;;;;;;;;12.60;12.60;;;;;4.54;73.94;98439.50;5014246;28;8853;-82
2023/01/20 09:19:21;;;;;;;;;14.00;13.00;;;;;4.28;73.90;98433.34;5046907;28;8874;-81
2023/01/20 09:21:51;;;;;;;;;12.80;11.40;;;;;4.02;75.44;98443.47;5017014;28;9123;-82
2023/01/20 09:24:20;;;;;;;;;19.25;15.25;;;;;3.95;75.30;98449.44;5027289;28;8904;-82
2023/01/20 09:26:49;;;;;;;;;14.00;12.20;;;;;4.12;74.91;98454.75;4995398;28;8861;-83
2023/01/20 09:29:20;;;;;;;;;13.00;13.00;;;;;4.62;74.06;98445.59;5021815;28;8858;-83
2023/01/20 09:31:56;;;;;;;;;18.50;16.75;;;;;4.32;73.99;98443.69;5046895;28;8858;-81
2023/01/20 09:34:28;;;;;;;;;18.00;13.75;;;;;4.49;73.91;98447.22;5013729;28;8975;-81
2023/01/20 09:43:52;;;;;;;;;14.50;13.25;;;;;4.55;73.80;98442.09;5007088;28;8941;-82
2023/01/20 09:45:47;;;;;;;;;20.00;17.50;;;;;3.96;74.56;98432.25;4987112;28;9101;-82
2023/01/20 09:54:16;;;;;;;;;18.75;13.75;;;;;3.13;78.28;98402.28;4987965;28;8938;-82
2023/01/20 09:56:49;;;;;;;;;19.50;19.00;;;;;3.36;77.68;98409.38;4989068;28;8838;-78
2023/01/20 09:59:25;;;;;;;;;18.00;16.00;;;;;3.39;77.97;98421.44;5024859;28;8992;-80
2023/01/20 10:01:57;;;;;;;;;16.25;14.50;;;;;3.53;76.96;98424.16;4968915;28;8854;-82
2023/01/20 10:04:34;;;;;;;;;17.25;16.50;;;;;3.96;76.54;98424.53;4952876;28;9555;-82
2023/01/20 10:07:09;;;;;;;;;15.75;14.50;;;;;4.07;75.91;98422.88;4954460;28;8857;-82
2023/01/20 10:09:45;;;;;;;;;18.50;16.50;;;;;4.23;75.34;98416.09;4991910;28;8945;-82
2023/01/20 10:12:18;;;;;;;;;20.50;19.50;;;;;4.18;74.96;98416.09;4966865;28;8875;-82
2023/01/20 10:14:50;;;;;;;;;15.00;15.00;;;;;4.17;75.50;98416.91;4931752;28;9716;-84
2023/01/20 10:17:29;;;;;;;;;23.00;20.25;;;;;3.60;76.75;98424.22;4963693;28;8933;-83
2023/01/20 10:20:05;;;;;;;;;18.00;16.75;;;;;3.88;76.25;98427.03;4925026;28;9637;-85
2023/01/20 10:22:40;;;;;;;;;16.75;14.25;;;;;4.41;75.27;98426.53;4957709;28;9712;-83
2023/01/20 10:25:14;;;;;;;;;13.40;13.40;;;;;3.97;76.04;98424.53;4947897;28;8886;-83
2023/01/20 10:27:52;;;;;;;;;22.25;16.75;;;;;4.51;75.36;98419.72;4948225;28;8869;-81
2023/01/20 10:30:25;;;;;;;;;23.50;19.00;;;;;4.44;74.28;98420.53;4984279;28;8880;-82
2023/01/20 10:33:00;;;;;;;;;18.50;17.25;;;;;4.52;74.43;98428.31;4973089;28;8915;-85
2023/01/20 10:35:37;;;;;;;;;26.00;22.00;;;;;4.53;74.69;98414.56;4997927;28;9043;-84
2023/01/20 10:38:09;;;;;;;;;23.25;22.00;;;;;4.49;74.86;98404.22;5028051;28;8861;-85
2023/01/20 10:40:43;;;;;;;;;21.00;21.00;;;;;4.44;74.40;98405.03;5046488;28;8852;-84
2023/01/20 10:43:15;;;;;;;;;25.75;25.00;;;;;4.47;74.54;98397.31;5027160;28;8884;-86
2023/01/20 10:46:11;;;;;;;;;28.25;23.25;;;;;4.56;75.12;98393.94;5058393;28;8946;-86
2023/01/20 10:48:57;;;;;;;;;35.25;30.50;;;;;4.49;75.59;98393.88;5075898;28;9675;-80
2023/01/20 10:51:36;;;;;;;;;31.00;26.00;;;;;4.42;74.67;98383.53;5032146;28;8882;-83
2023/01/20 10:54:21;;;;;;;;;35.25;34.75;;;;;4.07;75.95;98376.44;5050169;28;8893;-83
2023/01/20 10:56:55;;;;;;;;;38.00;35.00;;;;;3.78;76.83;98382.28;5032647;28;8997;-83
2023/01/20 10:59:30;;;;;;;;;37.25;32.25;;;;;3.60;77.52;98384.69;5030584;28;8951;-82
2023/01/20 11:02:10;;;;;;;;;37.00;35.50;;;;;3.94;77.25;98395.28;5015199;28;8886;-83
2023/01/20 11:04:41;;;;;;;;;38.25;35.75;;;;;4.24;76.85;98394.63;5031769;28;8908;-81
2023/01/20 11:07:17;;;;;;;;;46.00;42.50;;;;;4.44;76.41;98384.38;5002689;28;9008;-82
2023/01/20 11:09:48;;;;;;;;;36.25;34.50;;;;;4.83;76.04;98390.59;5024292;28;8896;-77
2023/01/20 11:12:20;;;;;;;;;44.25;34.25;;;;;4.83;75.96;98388.00;5034144;28;8866;-76
2023/01/20 11:14:48;;;;;;;;;46.75;34.50;;;;;4.95;74.97;98374.28;5027293;28;8869;-76
2023/01/20 11:17:20;;;;;;;;;47.25;43.00;;;;;4.42;76.00;98368.03;5044294;28;8925;-83
2023/01/20 11:19:52;;;;;;;;;38.50;30.75;;;;;4.53;75.52;98381.84;5012850;28;8874;-85
2023/01/20 11:22:31;;;;;;;;;43.00;33.75;;;;;4.63;76.48;98393.09;5025767;28;8874;-83
2023/01/20 11:25:02;;;;;;;;;50.25;43.75;;;;;4.38;75.83;98403.28;5058033;28;8842;-83
2023/01/20 11:27:41;;;;;;;;;44.25;40.75;;;;;4.67;76.05;98403.44;5055355;28;9354;-82
2023/01/20 11:30:27;;;;;;;;;50.25;40.25;;;;;4.93;75.71;98400.09;5046686;28;8887;-85
2023/01/20 11:33:16;;;;;;;;;47.50;40.00;;;;;5.21;75.31;98397.59;5049527;28;8964;-83
2023/01/20 11:36:01;;;;;;;;;48.75;44.00;;;;;4.95;74.89;98398.38;5050560;28;9714;-82
2023/01/20 11:38:40;;;;;;;;;62.00;46.00;;;;;4.95;74.20;98410.44;5032466;28;8878;-82
2023/01/20 11:41:20;;;;;;;;;37.00;34.00;;;;;5.10;74.11;98414.78;5066569;28;8962;-83
2023/01/20 11:43:51;;;;;;;;;47.75;38.00;;;;;4.77;73.88;98417.25;5036269;28;8904;-83
2023/01/20 11:46:26;;;;;;;;;42.75;41.50;;;;;4.75;74.33;98405.22;5034757;28;8879;-82
2023/01/20 11:49:17;;;;;;;;;29.75;26.25;;;;;5.05;74.72;98405.31;5049838;28;8860;-83
2023/01/20 11:51:49;;;;;;;;;48.75;40.25;;;;;4.93;74.08;98422.47;4959704;28;9017;-82
2023/01/20 11:54:22;;;;;;;;;57.25;46.00;;;;;5.15;74.27;98441.53;4968165;28;8888;-82
2023/01/20 11:56:55;;;;;;;;;38.00;33.75;;;;;5.04;74.23;98446.63;4961271;28;8874;-83
2023/01/20 11:59:28;;;;;;;;;55.50;45.00;;;;;5.01;73.66;98447.50;4979902;28;8848;-81
2023/01/20 12:02:00;;;;;;;;;38.00;34.75;;;;;5.03;73.16;98443.19;4996301;28;8861;-82
2023/01/20 12:04:55;;;;;;;;;58.75;46.75;;;;;4.76;75.19;98453.41;4987434;28;8873;-85
2023/01/20 12:07:27;;;;;;;;;59.00;50.25;;;;;4.66;74.65;98453.34;4972215;28;8926;-83
2023/01/20 12:10:04;;;;;;;;;53.50;43.50;;;;;4.87;74.44;98462.06;5002464;28;8844;-81